createdAt,value
2022-09-06T00:01:23.574Z,101061.34
2022-09-06T00:03:51.941Z,101055.31
2022-09-06T00:06:20.674Z,101065.22
2022-09-06T00:08:49.031Z,101069.72
2022-09-06T00:11:17.596Z,101083.03
2022-09-06T00:13:48.583Z,101075.84
2022-09-06T00:16:17.619Z,101081.91
2022-09-06T00:18:47.073Z,101085.34
2022-09-06T00:21:16.731Z,101073.72
2022-09-06T00:23:44.869Z,101071.97
2022-09-06T00:26:12.825Z,101072.75
2022-09-06T00:28:40.775Z,101073.53
2022-09-06T00:31:12.433Z,101068.59
2022-09-06T00:33:40.448Z,101069.66
2022-09-06T00:36:09.935Z,101072.78
2022-09-06T00:38:37.955Z,101069.78
2022-09-06T00:41:06.308Z,101067.75
2022-09-06T00:43:34.451Z,101066.22
2022-09-06T00:46:02.445Z,101067.19
2022-09-06T00:48:30.983Z,101062.88
2022-09-06T00:51:03.424Z,101061.28
2022-09-06T00:53:33.109Z,101054.19
2022-09-06T00:56:01.124Z,101047.94
2022-09-06T00:58:29.238Z,101059.66
2022-09-06T01:00:57.268Z,101055.13
2022-09-06T01:03:25.459Z,101061.38
2022-09-06T01:05:59.029Z,101063.09
2022-09-06T01:08:41.173Z,101056.88
2022-09-06T01:11:17.338Z,101045.13
2022-09-06T01:13:49.882Z,101050.50
2022-09-06T01:16:22.221Z,101043.44
2022-09-06T01:19:01.838Z,101046.88
2022-09-06T01:21:38.642Z,101049.31
2022-09-06T01:24:30.952Z,101055.38
2022-09-06T01:27:25.737Z,101038.34
2022-09-06T01:29:56.469Z,101044.50
2022-09-06T01:32:28.131Z,101040.19
2022-09-06T01:35:00.127Z,101032.44
2022-09-06T01:37:28.078Z,101036.09
2022-09-06T01:39:56.095Z,101033.50
2022-09-06T01:42:25.040Z,101044.50
2022-09-06T01:44:55.193Z,101036.44
2022-09-06T01:47:28.547Z,101043.81
2022-09-06T01:50:08.912Z,101038.13
2022-09-06T01:52:39.437Z,101033.63
2022-09-06T01:55:13.594Z,101042.44
2022-09-06T01:57:49.621Z,101039.63
2022-09-06T02:00:19.608Z,101039.88
2022-09-06T02:02:53.421Z,101047.81
2022-09-06T02:05:23.986Z,101036.84
2022-09-06T02:07:52.490Z,101032.44
2022-09-06T02:10:23.536Z,101036.09
2022-09-06T02:12:53.279Z,101032.00
2022-09-06T02:15:23.757Z,101032.13
2022-09-06T02:17:53.631Z,101030.81
2022-09-06T02:20:23.276Z,101040.81
2022-09-06T02:22:51.239Z,101026.81
2022-09-06T02:25:22.756Z,101026.19
2022-09-06T02:27:50.778Z,101023.81
2022-09-06T02:30:18.820Z,101021.31
2022-09-06T02:32:50.936Z,101022.31
2022-09-06T02:35:18.852Z,101021.88
2022-09-06T02:37:46.865Z,101024.66
2022-09-06T02:40:14.906Z,101018.63
2022-09-06T02:42:42.980Z,101017.88
2022-09-06T02:45:11.611Z,101023.44
2022-09-06T02:47:39.572Z,101025.38
2022-09-06T02:50:09.885Z,101023.66
2022-09-06T02:52:37.873Z,101018.38
2022-09-06T02:55:06.871Z,101025.66
2022-09-06T02:57:34.838Z,101022.09
2022-09-06T03:00:03.193Z,101023.94
2022-09-06T03:02:31.223Z,101018.66
2022-09-06T03:04:59.153Z,101014.34
2022-09-06T03:07:28.449Z,101011.66
2022-09-06T03:09:57.051Z,101010.91
2022-09-06T03:12:25.036Z,101019.94
2022-09-06T03:14:55.029Z,101013.72
2022-09-06T03:17:23.188Z,101017.34
2022-09-06T03:19:51.133Z,101014.66
2022-09-06T03:22:19.137Z,101013.81
2022-09-06T03:24:49.178Z,101014.66
2022-09-06T03:27:17.154Z,101012.72
2022-09-06T03:29:45.199Z,101009.09
2022-09-06T03:32:13.144Z,101011.78
2022-09-06T03:34:41.095Z,101006.41
2022-09-06T03:37:09.093Z,101018.09
2022-09-06T03:39:37.279Z,101022.63
2022-09-06T03:42:06.931Z,101017.34
2022-09-06T03:44:34.870Z,101004.91
2022-09-06T03:47:02.800Z,101005.97
2022-09-06T03:49:30.789Z,101005.19
2022-09-06T03:51:58.768Z,101003.56
2022-09-06T03:54:28.537Z,101007.31
2022-09-06T03:56:57.388Z,101004.00
2022-09-06T03:59:26.708Z,101006.78
2022-09-06T04:01:54.678Z,101009.44
2022-09-06T04:04:22.684Z,101014.00
2022-09-06T04:06:50.634Z,101006.78
2022-09-06T04:09:18.726Z,101005.19
2022-09-06T04:11:46.726Z,101005.25
2022-09-06T04:14:14.785Z,101000.88
2022-09-06T04:16:44.159Z,101005.38
2022-09-06T04:19:12.164Z,101007.19
2022-09-06T04:21:40.108Z,101000.00
2022-09-06T04:24:08.145Z,100993.66
2022-09-06T04:26:36.106Z,100984.75
2022-09-06T04:29:04.103Z,100981.94
2022-09-06T04:31:32.139Z,100979.25
2022-09-06T04:34:01.506Z,100970.25
2022-09-06T04:36:29.924Z,100975.41
2022-09-06T04:38:57.916Z,100969.91
2022-09-06T04:41:25.878Z,100975.22
2022-09-06T04:43:53.846Z,100973.38
2022-09-06T04:46:22.616Z,100970.59
2022-09-06T04:48:50.641Z,100972.22
2022-09-06T04:51:20.039Z,100971.16
2022-09-06T04:53:48.400Z,100970.06
2022-09-06T04:56:17.282Z,100954.72
2022-09-06T04:58:45.729Z,100961.69
2022-09-06T05:01:13.743Z,100947.19
2022-09-06T05:03:41.762Z,100946.97
2022-09-06T05:06:10.778Z,100952.06
2022-09-06T05:08:40.624Z,100945.63
2022-09-06T05:11:09.104Z,100958.09
2022-09-06T05:13:37.089Z,100956.94
2022-09-06T05:16:06.400Z,100958.63
2022-09-06T05:18:34.736Z,100952.94
2022-09-06T05:21:02.699Z,100951.00
2022-09-06T05:23:30.825Z,100955.75
2022-09-06T05:26:00.204Z,100966.06
2022-09-06T05:28:28.325Z,100967.56
2022-09-06T05:31:06.676Z,100966.28
2022-09-06T05:33:34.787Z,100973.28
2022-09-06T05:36:03.534Z,100975.00
2022-09-06T05:38:31.643Z,100972.97
2022-09-06T05:41:01.244Z,100969.16
2022-09-06T05:43:29.214Z,100969.09
2022-09-06T05:45:57.286Z,100972.53
2022-09-06T05:48:28.773Z,100968.97
2022-09-06T05:51:02.085Z,100968.84
2022-09-06T05:53:35.233Z,100950.78
2022-09-06T05:56:05.170Z,100956.16
2022-09-06T05:58:33.099Z,100953.38
2022-09-06T06:01:08.639Z,100957.78
2022-09-06T06:03:39.267Z,100958.53
2022-09-06T06:06:07.716Z,100961.94
2022-09-06T06:08:36.194Z,100961.53
2022-09-06T06:11:05.678Z,100952.50
2022-09-06T06:13:35.061Z,100954.75
2022-09-06T06:16:03.698Z,100954.66
2022-09-06T06:18:31.675Z,100952.81
2022-09-06T06:21:10.273Z,100942.28
2022-09-06T06:23:38.622Z,100939.78
2022-09-06T06:26:09.320Z,100943.47
2022-09-06T06:28:37.280Z,100940.13
2022-09-06T06:31:05.515Z,100929.47
2022-09-06T06:33:33.569Z,100931.41
2022-09-06T06:36:02.608Z,100929.69
2022-09-06T06:38:33.449Z,100924.22
2022-09-06T06:41:06.400Z,100931.97
2022-09-06T06:43:38.096Z,100925.25
2022-09-06T06:46:06.889Z,100920.09
2022-09-06T06:48:34.944Z,100926.63
2022-09-06T06:51:14.138Z,100918.34
2022-09-06T06:53:42.196Z,100922.75
2022-09-06T06:56:17.600Z,100915.91
2022-09-06T06:58:50.006Z,100912.69
2022-09-06T07:01:18.080Z,100904.03
2022-09-06T07:03:49.435Z,100903.34
2022-09-06T07:06:18.499Z,100898.72
2022-09-06T07:08:46.634Z,100900.59
2022-09-06T07:11:15.645Z,100905.41
2022-09-06T07:13:43.739Z,100896.84
2022-09-06T07:16:13.955Z,100902.63
2022-09-06T07:18:42.982Z,100908.53
2022-09-06T07:24:08.491Z,100908.75
2022-09-06T07:26:38.395Z,100910.59
2022-09-06T07:29:07.206Z,100916.53
2022-09-06T07:34:27.215Z,100907.78
2022-09-06T07:36:55.508Z,100895.75
2022-09-06T07:39:23.592Z,100901.97
2022-09-06T07:41:53.625Z,100889.38
2022-09-06T07:44:23.081Z,100876.03
2022-09-06T07:46:52.764Z,100880.84
2022-09-06T07:49:23.768Z,100876.09
2022-09-06T07:51:53.832Z,100865.94
2022-09-06T07:54:31.537Z,100867.69
2022-09-06T07:56:59.811Z,100864.66
2022-09-06T07:59:27.778Z,100861.75
2022-09-06T08:01:57.217Z,100858.78
2022-09-06T08:04:25.240Z,100865.53
2022-09-06T08:09:41.874Z,100860.50
2022-09-06T08:12:10.030Z,100860.47
2022-09-06T08:14:37.968Z,100865.38
2022-09-06T08:17:10.202Z,100868.06
2022-09-06T08:19:38.207Z,100863.41
2022-09-06T08:22:06.340Z,100864.13
2022-09-06T08:24:35.812Z,100867.44
2022-09-06T08:27:07.636Z,100869.03
2022-09-06T08:29:35.634Z,100870.00
2022-09-06T08:32:04.020Z,100862.28
2022-09-06T08:34:33.556Z,100870.63
2022-09-06T08:37:10.622Z,100866.47
2022-09-06T08:39:38.672Z,100861.59
2022-09-06T08:42:07.335Z,100857.28
2022-09-06T08:47:25.580Z,100843.06
2022-09-06T08:49:56.323Z,100845.63
2022-09-06T08:52:45.373Z,100848.22
2022-09-06T08:55:32.870Z,100852.63
2022-09-06T08:58:30.815Z,100847.00
2022-09-06T09:01:00.131Z,100839.97
2022-09-06T09:03:31.003Z,100853.56
2022-09-06T09:06:03.527Z,100847.13
2022-09-06T09:08:41.305Z,100841.94
2022-09-06T09:11:11.492Z,100832.25
2022-09-06T09:13:41.352Z,100840.13
2022-09-06T09:16:09.353Z,100855.22
2022-09-06T09:18:38.636Z,100843.50
2022-09-06T09:21:08.003Z,100839.47
2022-09-06T09:23:36.238Z,100846.97
2022-09-06T09:26:05.866Z,100842.59
2022-09-06T09:28:33.822Z,100843.34
2022-09-06T09:31:02.133Z,100847.09
2022-09-06T09:33:31.351Z,100844.94
2022-09-06T09:36:07.947Z,100844.53
2022-09-06T09:38:42.105Z,100838.53
2022-09-06T09:41:10.079Z,100837.72
2022-09-06T09:43:38.842Z,100846.72
2022-09-06T09:46:18.123Z,100850.13
2022-09-06T09:48:49.735Z,100834.41
2022-09-06T09:51:26.183Z,100837.25
2022-09-06T09:53:57.421Z,100840.81
2022-09-06T09:56:33.459Z,100832.06
2022-09-06T09:59:01.500Z,100813.53
2022-09-06T10:01:31.074Z,100823.78
2022-09-06T10:09:37.024Z,100813.06
2022-09-06T10:12:05.316Z,100804.50
2022-09-06T10:14:34.248Z,100810.31
2022-09-06T10:17:02.209Z,100811.13
2022-09-06T10:19:41.537Z,100808.09
2022-09-06T10:22:33.198Z,100809.47
2022-09-06T10:25:39.208Z,100811.81
2022-09-06T10:28:30.009Z,100805.38
2022-09-06T10:31:27.171Z,100805.16
2022-09-06T10:34:03.730Z,100812.78
2022-09-06T10:36:34.980Z,100798.47
2022-09-06T10:39:06.337Z,100813.34
2022-09-06T10:41:47.405Z,100797.91
2022-09-06T10:44:24.329Z,100801.44
2022-09-06T10:46:54.718Z,100796.38
2022-09-06T10:49:23.094Z,100788.16
2022-09-06T10:51:53.077Z,100789.81
2022-09-06T10:54:22.782Z,100787.81
2022-09-06T10:56:54.018Z,100782.66
2022-09-06T10:59:39.288Z,100782.81
2022-09-06T11:02:14.797Z,100779.03
2022-09-06T11:07:32.221Z,100781.41
2022-09-06T11:10:01.988Z,100767.16
2022-09-06T11:12:33.969Z,100735.66
2022-09-06T11:15:02.132Z,100762.16
2022-09-06T11:17:31.951Z,100758.75
2022-09-06T11:20:04.975Z,100757.91
2022-09-06T11:22:59.498Z,100748.56
2022-09-06T11:25:36.769Z,100752.53
2022-09-06T11:28:06.810Z,100747.38
2022-09-06T11:30:41.175Z,100750.94
2022-09-06T11:33:18.677Z,100758.53
2022-09-06T11:35:46.788Z,100764.72
2022-09-06T11:38:24.510Z,100764.81
2022-09-06T11:40:58.600Z,100753.97
2022-09-06T11:43:47.989Z,100756.53
2022-09-06T11:46:53.787Z,100750.19
2022-09-06T11:49:36.395Z,100752.50
2022-09-06T11:52:19.744Z,100744.00
2022-09-06T11:54:47.669Z,100740.66
2022-09-06T11:57:16.823Z,100737.28
2022-09-06T11:59:57.451Z,100747.84
2022-09-06T12:02:35.113Z,100753.81
2022-09-06T12:05:18.761Z,100753.00
2022-09-06T12:08:15.610Z,100762.91
2022-09-06T12:10:49.669Z,100764.09
2022-09-06T12:13:42.478Z,100764.31
2022-09-06T12:16:12.585Z,100753.56
2022-09-06T12:19:00.457Z,100775.53
2022-09-06T12:21:39.412Z,100758.28
2022-09-06T12:24:07.990Z,100767.44
2022-09-06T12:26:55.260Z,100772.38
2022-09-06T12:29:25.249Z,100778.44
2022-09-06T12:32:01.627Z,100771.53
2022-09-06T12:34:31.408Z,100777.47
2022-09-06T12:37:00.564Z,100772.25
2022-09-06T12:39:28.564Z,100783.97
2022-09-06T12:41:57.399Z,100766.09
2022-09-06T12:44:34.207Z,100780.91
2022-09-06T12:47:07.653Z,100790.72
2022-09-06T12:49:35.890Z,100769.34
2022-09-06T12:52:08.292Z,100765.09
2022-09-06T12:54:40.720Z,100755.69
2022-09-06T12:57:16.592Z,100740.97
2022-09-06T12:59:54.893Z,100729.94
2022-09-06T13:02:28.879Z,100731.72
2022-09-06T13:05:01.265Z,100723.06
2022-09-06T13:07:32.044Z,100717.91
2022-09-06T13:09:59.994Z,100722.28
2022-09-06T13:12:29.661Z,100726.84
2022-09-06T13:14:59.550Z,100730.69
2022-09-06T13:17:30.261Z,100722.28
2022-09-06T13:19:59.919Z,100719.94
2022-09-06T13:22:42.632Z,100732.28
2022-09-06T13:25:20.708Z,100714.63
2022-09-06T13:27:50.888Z,100713.53
2022-09-06T13:30:36.048Z,100709.34
2022-09-06T13:33:06.078Z,100707.44
2022-09-06T13:35:35.594Z,100714.97
2022-09-06T13:38:31.823Z,100705.22
2022-09-06T13:41:16.906Z,100705.31
2022-09-06T13:43:46.128Z,100701.44
2022-09-06T13:46:14.255Z,100698.88
2022-09-06T13:48:44.646Z,100704.97
2022-09-06T13:51:13.124Z,100700.00
2022-09-06T13:53:41.103Z,100702.38
2022-09-06T13:56:09.112Z,100700.63
2022-09-06T13:58:37.342Z,100692.69
2022-09-06T14:01:10.843Z,100690.44
2022-09-06T14:03:41.930Z,100691.22
2022-09-06T14:06:14.113Z,100691.81
2022-09-06T14:09:05.692Z,100706.66
2022-09-06T14:11:31.048Z,100685.69
2022-09-06T14:14:00.850Z,100675.84
2022-09-06T14:16:28.963Z,100684.03
2022-09-06T14:18:59.806Z,100671.38
2022-09-06T14:21:31.584Z,100672.44
2022-09-06T14:24:04.086Z,100655.59
2022-09-06T14:26:33.150Z,100668.63
2022-09-06T14:29:01.229Z,100663.22
2022-09-06T14:31:29.445Z,100663.34
2022-09-06T14:33:57.715Z,100671.00
2022-09-06T14:36:26.356Z,100662.97
2022-09-06T14:38:55.705Z,100680.88
2022-09-06T14:41:23.606Z,100663.00
2022-09-06T14:43:52.172Z,100664.88
2022-09-06T14:46:25.972Z,100655.53
2022-09-06T14:49:06.183Z,100657.03
2022-09-06T14:51:34.470Z,100651.91
2022-09-06T14:54:13.068Z,100636.41
2022-09-06T14:56:41.854Z,100642.00
2022-09-06T14:59:13.766Z,100649.22
2022-09-06T15:01:46.150Z,100641.06
2022-09-06T15:04:17.016Z,100644.16
2022-09-06T15:06:59.387Z,100644.75
2022-09-06T15:09:29.009Z,100635.59
2022-09-06T15:11:56.888Z,100634.47
2022-09-06T15:14:26.086Z,100639.41
2022-09-06T15:16:56.636Z,100639.03
2022-09-06T15:19:24.840Z,100644.78
2022-09-06T15:21:52.797Z,100634.91
2022-09-06T15:24:20.952Z,100640.75
2022-09-06T15:26:50.381Z,100642.22
2022-09-06T15:29:18.482Z,100638.84
2022-09-06T15:31:50.347Z,100641.81
2022-09-06T15:34:18.571Z,100639.00
2022-09-06T15:36:46.703Z,100629.09
2022-09-06T15:39:15.187Z,100630.28
2022-09-06T15:41:43.129Z,100635.13
2022-09-06T15:44:13.384Z,100635.72
2022-09-06T15:46:50.460Z,100628.28
2022-09-06T15:49:19.376Z,100639.03
2022-09-06T15:51:47.393Z,100635.13
2022-09-06T15:54:16.331Z,100631.16
2022-09-06T15:56:43.370Z,100635.94
2022-09-06T15:59:12.955Z,100621.28
2022-09-06T16:01:41.208Z,100622.09
2022-09-06T16:04:09.206Z,100623.91
2022-09-06T16:07:16.082Z,100627.19
2022-09-06T16:09:44.220Z,100615.03
2022-09-06T16:12:12.502Z,100618.13
2022-09-06T16:14:42.023Z,100616.75
2022-09-06T16:17:10.186Z,100610.13
2022-09-06T16:19:38.284Z,100620.06
2022-09-06T16:22:06.616Z,100625.66
2022-09-06T16:24:34.747Z,100624.38
2022-09-06T16:27:05.858Z,100625.19
2022-09-06T16:29:33.859Z,100634.81
2022-09-06T16:32:05.461Z,100626.09
2022-09-06T16:34:33.877Z,100628.13
2022-09-06T16:37:07.800Z,100627.88
2022-09-06T16:39:35.805Z,100639.47
2022-09-06T16:42:03.775Z,100632.72
2022-09-06T16:44:32.176Z,100616.03
2022-09-06T16:47:03.961Z,100631.09
2022-09-06T16:49:33.479Z,100643.25
2022-09-06T16:52:01.434Z,100647.66
2022-09-06T16:54:29.897Z,100654.75
2022-09-06T16:56:58.022Z,100662.03
2022-09-06T16:59:26.437Z,100663.03
2022-09-06T17:01:56.196Z,100669.03
2022-09-06T17:04:24.554Z,100670.22
2022-09-06T17:06:53.909Z,100673.38
2022-09-06T17:09:22.037Z,100665.03
2022-09-06T17:11:50.624Z,100669.19
2022-09-06T17:14:18.856Z,100657.69
2022-09-06T17:17:04.392Z,100662.22
2022-09-06T17:19:32.480Z,100659.13
2022-09-06T17:22:02.069Z,100659.75
2022-09-06T17:24:30.004Z,100649.97
2022-09-06T17:26:57.920Z,100653.66
2022-09-06T17:29:26.665Z,100650.81
2022-09-06T17:31:57.524Z,100648.13
2022-09-06T17:34:25.584Z,100647.53
2022-09-06T17:36:53.732Z,100640.19
2022-09-06T17:39:23.212Z,100640.66
2022-09-06T17:41:52.266Z,100648.53
2022-09-06T17:44:21.765Z,100638.25
2022-09-06T17:47:11.492Z,100644.88
2022-09-06T17:49:37.893Z,100635.28
2022-09-06T17:52:05.910Z,100637.63
2022-09-06T17:54:35.210Z,100634.47
2022-09-06T17:57:04.929Z,100630.03
2022-09-06T17:59:35.803Z,100633.81
2022-09-06T18:02:10.133Z,100639.72
2022-09-06T18:04:38.436Z,100646.00
2022-09-06T18:07:06.475Z,100646.00
2022-09-06T18:09:36.987Z,100645.84
2022-09-06T18:12:09.369Z,100638.63
2022-09-06T18:14:37.656Z,100645.63
2022-09-06T18:17:05.764Z,100640.47
2022-09-06T18:19:33.737Z,100648.69
2022-09-06T18:22:01.714Z,100637.03
2022-09-06T18:24:29.622Z,100641.81
2022-09-06T18:27:02.842Z,100639.34
2022-09-06T18:29:30.769Z,100635.91
2022-09-06T18:31:58.924Z,100637.03
2022-09-06T18:34:28.190Z,100635.66
2022-09-06T18:36:56.206Z,100627.56
2022-09-06T18:39:24.288Z,100634.94
2022-09-06T18:42:01.256Z,100632.59
2022-09-06T18:44:33.098Z,100641.91
2022-09-06T18:47:02.056Z,100639.34
2022-09-06T18:49:30.316Z,100632.13
2022-09-06T18:51:58.257Z,100645.97
2022-09-06T18:54:26.254Z,100648.75
2022-09-06T18:56:54.318Z,100639.13
2022-09-06T18:59:22.571Z,100643.13
2022-09-06T19:01:52.052Z,100633.47
2022-09-06T19:04:20.252Z,100640.81
2022-09-06T19:06:48.193Z,100626.97
2022-09-06T19:09:17.231Z,100626.47
2022-09-06T19:11:46.976Z,100632.56
2022-09-06T19:14:15.012Z,100631.72
2022-09-06T19:16:43.052Z,100633.28
2022-09-06T19:19:13.484Z,100635.38
2022-09-06T19:21:42.612Z,100636.47
2022-09-06T19:24:11.909Z,100632.25
2022-09-06T19:26:41.566Z,100633.34
2022-09-06T19:29:12.352Z,100634.78
2022-09-06T19:31:40.428Z,100637.00
2022-09-06T19:34:08.577Z,100631.97
2022-09-06T19:36:37.863Z,100632.94
2022-09-06T19:39:06.898Z,100632.53
2022-09-06T19:41:35.801Z,100639.88
2022-09-06T19:44:05.909Z,100638.16
2022-09-06T19:46:34.945Z,100637.53
2022-09-06T19:49:03.315Z,100648.50
2022-09-06T19:51:34.126Z,100651.94
2022-09-06T19:54:03.390Z,100654.97
2022-09-06T19:56:34.933Z,100659.41
2022-09-06T19:59:03.633Z,100660.13
2022-09-06T20:01:32.770Z,100656.50
2022-09-06T20:04:02.481Z,100660.88
2022-09-06T20:06:30.464Z,100660.00
2022-09-06T20:08:58.864Z,100658.06
2022-09-06T20:11:29.041Z,100651.84
2022-09-06T20:13:57.103Z,100654.28
2022-09-06T20:16:25.811Z,100652.69
2022-09-06T20:18:55.860Z,100644.63
2022-09-06T20:21:23.827Z,100641.94
2022-09-06T20:23:52.107Z,100642.78
2022-09-06T20:26:20.089Z,100644.63
2022-09-06T20:28:49.362Z,100647.22
2022-09-06T20:31:18.663Z,100645.38
2022-09-06T20:33:49.665Z,100643.53
2022-09-06T20:36:18.236Z,100633.63
2022-09-06T20:38:46.837Z,100636.31
2022-09-06T20:41:16.478Z,100637.06
2022-09-06T20:43:51.382Z,100638.78
2022-09-06T20:46:20.402Z,100640.75
2022-09-06T20:48:48.691Z,100636.97
2022-09-06T20:51:25.222Z,100631.94
2022-09-06T20:53:57.375Z,100643.19
2022-09-06T20:56:30.144Z,100620.03
2022-09-06T20:59:00.977Z,100636.09
2022-09-06T21:01:31.223Z,100636.09
2022-09-06T21:04:00.500Z,100632.41
2022-09-06T21:06:29.060Z,100637.06
2022-09-06T21:08:57.736Z,100637.94
2022-09-06T21:11:25.634Z,100641.56
2022-09-06T21:13:55.833Z,100645.03
2022-09-06T21:16:25.737Z,100642.09
2022-09-06T21:18:53.935Z,100629.72
2022-09-06T21:21:22.255Z,100623.75
2022-09-06T21:23:50.350Z,100632.53
2022-09-06T21:26:18.354Z,100626.22
2022-09-06T21:28:47.091Z,100632.19
2022-09-06T21:31:17.027Z,100630.38
2022-09-06T21:33:47.348Z,100628.41
2022-09-06T21:36:16.248Z,100628.16
2022-09-06T21:38:45.362Z,100623.19
2022-09-06T21:41:14.135Z,100620.88
2022-09-06T21:43:42.402Z,100621.50
2022-09-06T21:46:11.065Z,100624.97
2022-09-06T21:48:41.671Z,100615.66
2022-09-06T21:51:13.055Z,100626.06
2022-09-06T21:53:41.032Z,100618.63
2022-09-06T21:56:09.014Z,100612.38
2022-09-06T21:58:36.987Z,100612.53
2022-09-06T22:01:05.140Z,100619.72
2022-09-06T22:03:34.616Z,100616.91
2022-09-06T22:06:10.718Z,100610.44
2022-09-06T22:08:39.076Z,100606.50
2022-09-06T22:11:09.701Z,100613.38
2022-09-06T22:13:37.613Z,100615.97
2022-09-06T22:16:07.985Z,100613.13
2022-09-06T22:18:36.212Z,100616.44
2022-09-06T22:21:06.556Z,100615.47
2022-09-06T22:23:35.847Z,100611.78
2022-09-06T22:26:04.979Z,100610.09
2022-09-06T22:28:33.041Z,100609.09
2022-09-06T22:31:00.965Z,100611.78
2022-09-06T22:33:29.345Z,100608.00
2022-09-06T22:35:58.097Z,100605.94
2022-09-06T22:38:26.016Z,100596.63
2022-09-06T22:40:56.112Z,100596.41
2022-09-06T22:43:24.091Z,100600.78
2022-09-06T22:45:52.291Z,100595.25
2022-09-06T22:48:20.283Z,100596.25
2022-09-06T22:50:48.190Z,100595.66
2022-09-06T22:53:16.309Z,100592.47
2022-09-06T22:55:47.421Z,100585.00
2022-09-06T22:58:16.704Z,100590.13
2022-09-06T23:00:44.630Z,100598.56
2022-09-06T23:03:12.676Z,100593.41
2022-09-06T23:05:40.806Z,100583.75
2022-09-06T23:08:08.721Z,100591.09
2022-09-06T23:10:40.472Z,100589.75
2022-09-06T23:13:09.499Z,100592.78
2022-09-06T23:15:40.714Z,100587.47
2022-09-06T23:18:08.872Z,100586.66
2022-09-06T23:20:36.879Z,100589.22
2022-09-06T23:23:04.881Z,100584.59
2022-09-06T23:25:32.770Z,100582.78
2022-09-06T23:28:00.725Z,100580.94
2022-09-06T23:30:28.701Z,100576.31
2022-09-06T23:32:58.273Z,100579.00
2022-09-06T23:35:26.232Z,100585.09
2022-09-06T23:37:54.820Z,100588.53
2022-09-06T23:40:22.768Z,100584.84
2022-09-06T23:42:50.691Z,100588.41
2022-09-06T23:45:18.599Z,100592.81
2022-09-06T23:47:46.572Z,100587.16
2022-09-06T23:50:15.896Z,100595.16
2022-09-06T23:52:43.844Z,100588.53
2022-09-06T23:55:11.754Z,100589.41
2022-09-06T23:57:39.632Z,100582.06
